Time;durP1;ratioP1;P1;durP2;ratioP2;P2;SDS_P1;SDS_P2;PMS_P1;PMS_P2;Temp;Humidity;BMP_temperature;BMP_pressure;BME280_temperature;BME280_humidity;BME280_pressure;Samples;Min_cycle;Max_cycle;Signal;HPM_P1;HPM_P2
2023/03/21 00:00:28;;;;;;;5.13;3.80;;;;;;;;;;4924443;29;20079;-72
2023/03/21 00:02:53;;;;;;;5.10;3.17;;;;;;;;;;4933386;29;20050;-70
2023/03/21 00:05:19;;;;;;;4.10;3.60;;;;;;;;;;4927752;29;20040;-71
2023/03/21 00:07:45;;;;;;;4.00;3.42;;;;;;;;;;4931367;29;20530;-72
2023/03/21 00:10:11;;;;;;;5.13;3.83;;;;;;;;;;4928241;29;20422;-72
2023/03/21 00:12:36;;;;;;;9.35;4.85;;;;;;;;;;4926382;29;20054;-72
2023/03/21 00:15:07;;;;;;;4.28;3.47;;;;;;;;;;4931241;29;20414;-72
2023/03/21 00:17:33;;;;;;;4.60;3.72;;;;;;;;;;4935588;29;20395;-71
2023/03/21 00:19:59;;;;;;;7.32;3.53;;;;;;;;;;4930116;29;20071;-72
2023/03/21 00:22:26;;;;;;;5.30;4.03;;;;;;;;;;4935456;29;20051;-72
2023/03/21 00:24:52;;;;;;;4.20;3.70;;;;;;;;;;4927411;29;20061;-72
2023/03/21 00:27:20;;;;;;;5.28;3.75;;;;;;;;;;4928525;29;20051;-72
2023/03/21 00:29:50;;;;;;;4.20;3.38;;;;;;;;;;4910725;29;20132;-72
2023/03/21 00:32:18;;;;;;;3.80;3.00;;;;;;;;;;4908506;29;20051;-72
2023/03/21 00:34:47;;;;;;;3.63;3.05;;;;;;;;;;4931974;29;20039;-72
2023/03/21 00:37:17;;;;;;;6.40;3.40;;;;;;;;;;4932221;29;20522;-72
2023/03/21 00:39:47;;;;;;;7.32;3.22;;;;;;;;;;4910353;29;20403;-72
2023/03/21 00:42:12;;;;;;;4.20;3.20;;;;;;;;;;4912099;29;20051;-71
2023/03/21 00:44:39;;;;;;;4.13;3.13;;;;;;;;;;4929697;29;20051;-72
2023/03/21 00:47:05;;;;;;;3.30;3.00;;;;;;;;;;4911467;29;20379;-72
2023/03/21 00:49:33;;;;;;;3.65;2.70;;;;;;;;;;4907668;29;20048;-72
2023/03/21 00:52:02;;;;;;;6.40;3.10;;;;;;;;;;4930058;29;20071;-72
2023/03/21 00:54:27;;;;;;;4.63;3.17;;;;;;;;;;4912101;29;20052;-74
2023/03/21 00:56:53;;;;;;;6.40;3.42;;;;;;;;;;4914655;29;20048;-72
2023/03/21 00:59:18;;;;;;;4.57;3.05;;;;;;;;;;4936768;29;20140;-72
2023/03/21 01:01:45;;;;;;;6.05;3.05;;;;;;;;;;4929879;29;20111;-72
2023/03/21 01:04:13;;;;;;;4.38;2.90;;;;;;;;;;4924673;29;20171;-72
2023/03/21 01:06:40;;;;;;;5.53;2.95;;;;;;;;;;4931877;29;20535;-72
2023/03/21 01:09:11;;;;;;;3.75;3.00;;;;;;;;;;4933069;29;20425;-72
2023/03/21 01:11:36;;;;;;;3.20;2.90;;;;;;;;;;4934295;29;20039;-72
2023/03/21 01:14:02;;;;;;;7.63;3.70;;;;;;;;;;4933062;29;20043;-72
2023/03/21 01:16:28;;;;;;;4.30;3.15;;;;;;;;;;4933943;29;20047;-74
2023/03/21 01:18:53;;;;;;;3.55;2.53;;;;;;;;;;4933401;28;20047;-72
2023/03/21 01:21:19;;;;;;;5.82;3.05;;;;;;;;;;4931229;29;20091;-72
2023/03/21 01:23:45;;;;;;;3.47;2.78;;;;;;;;;;4932273;29;20514;-72
2023/03/21 01:26:11;;;;;;;3.97;3.05;;;;;;;;;;4931794;28;20070;-72
2023/03/21 01:28:39;;;;;;;3.85;2.70;;;;;;;;;;4913585;29;20055;-73
2023/03/21 01:31:05;;;;;;;5.55;3.03;;;;;;;;;;4914916;28;20540;-72
2023/03/21 01:33:31;;;;;;;4.72;2.90;;;;;;;;;;4934570;29;20050;-73
2023/03/21 01:35:58;;;;;;;4.45;3.15;;;;;;;;;;4915639;29;20052;-70
2023/03/21 01:38:27;;;;;;;7.70;3.10;;;;;;;;;;4908654;29;20446;-70
2023/03/21 01:40:52;;;;;;;3.25;2.95;;;;;;;;;;4912722;29;20051;-70
2023/03/21 01:43:34;;;;;;;4.03;3.00;;;;;;;;;;4922683;29;20558;-70
2023/03/21 01:46:21;;;;;;;3.97;3.17;;;;;;;;;;4922919;29;20095;-70
2023/03/21 01:49:25;;;;;;;3.53;2.90;;;;;;;;;;4921393;29;20106;-70
2023/03/21 01:52:01;;;;;;;3.30;3.00;;;;;;;;;;4917421;29;20047;-72
2023/03/21 01:54:31;;;;;;;3.60;3.25;;;;;;;;;;4919520;29;20046;-72
2023/03/21 01:56:59;;;;;;;4.25;3.85;;;;;;;;;;4906221;29;20055;-72
2023/03/21 01:59:35;;;;;;;4.25;3.40;;;;;;;;;;4922852;29;20482;-72
2023/03/21 02:02:19;;;;;;;4.13;3.10;;;;;;;;;;4911516;29;20055;-72
2023/03/21 02:05:02;;;;;;;4.30;3.35;;;;;;;;;;4914489;29;20035;-72
2023/03/21 02:07:34;;;;;;;5.03;3.50;;;;;;;;;;4913768;29;20105;-72
2023/03/21 02:10:09;;;;;;;3.95;3.45;;;;;;;;;;4931074;29;20062;-72
2023/03/21 02:12:37;;;;;;;3.53;3.20;;;;;;;;;;4908814;29;20696;-72
2023/03/21 02:15:03;;;;;;;3.72;3.03;;;;;;;;;;4919594;29;20048;-72
2023/03/21 02:17:53;;;;;;;3.30;3.03;;;;;;;;;;4923069;29;20685;-72
2023/03/21 02:20:53;;;;;;;3.15;2.85;;;;;;;;;;4907955;29;20062;-72
2023/03/21 02:24:10;;;;;;;3.70;3.20;;;;;;;;;;4894012;29;20425;-72
2023/03/21 02:26:58;;;;;;;3.67;3.33;;;;;;;;;;4903123;28;20533;-71
2023/03/21 02:29:47;;;;;;;3.58;3.10;;;;;;;;;;4922638;29;20180;-72
2023/03/21 02:32:51;;;;;;;6.85;3.50;;;;;;;;;;4927416;29;20230;-72
2023/03/21 02:35:33;;;;;;;4.13;3.00;;;;;;;;;;4891692;29;20055;-72
2023/03/21 02:38:18;;;;;;;4.10;3.05;;;;;;;;;;4928820;29;20047;-74
2023/03/21 02:40:59;;;;;;;3.20;2.90;;;;;;;;;;4926617;29;20047;-74
2023/03/21 02:43:36;;;;;;;2.92;2.72;;;;;;;;;;4921456;29;20063;-74
2023/03/21 02:46:10;;;;;;;3.92;3.15;;;;;;;;;;4922001;29;20084;-75
2023/03/21 02:48:40;;;;;;;6.43;3.15;;;;;;;;;;4920773;29;20051;-74
2023/03/21 02:51:10;;;;;;;2.75;2.55;;;;;;;;;;4922907;29;20566;-74
2023/03/21 02:53:42;;;;;;;5.60;3.25;;;;;;;;;;4909347;29;20130;-74
2023/03/21 02:56:09;;;;;;;2.92;2.72;;;;;;;;;;4921278;29;20055;-74
2023/03/21 02:58:38;;;;;;;3.45;2.78;;;;;;;;;;4919713;29;20159;-74
2023/03/21 03:01:07;;;;;;;4.00;3.00;;;;;;;;;;4921437;29;20059;-74
2023/03/21 03:03:38;;;;;;;3.83;3.15;;;;;;;;;;4921389;29;20501;-74
2023/03/21 03:06:17;;;;;;;3.92;2.97;;;;;;;;;;4921562;29;20051;-74
2023/03/21 03:09:03;;;;;;;3.33;3.00;;;;;;;;;;4933993;29;20051;-72
2023/03/21 03:11:35;;;;;;;4.32;3.25;;;;;;;;;;4936261;29;20456;-71
2023/03/21 03:14:15;;;;;;;5.75;2.92;;;;;;;;;;4923802;29;20043;-71
2023/03/21 03:17:11;;;;;;;3.85;3.13;;;;;;;;;;4932162;28;20047;-71
2023/03/21 03:20:04;;;;;;;7.90;3.83;;;;;;;;;;4930994;29;20031;-72
2023/03/21 03:22:46;;;;;;;3.60;3.13;;;;;;;;;;4921915;29;20583;-72
2023/03/21 03:25:18;;;;;;;5.95;3.15;;;;;;;;;;4931253;29;20043;-71
2023/03/21 03:27:45;;;;;;;;;;;;;;;;;;4910371;29;20071;-72
2023/03/21 03:30:12;;;;;;;9.95;3.45;;;;;;;;;;4913498;29;20494;-72
2023/03/21 03:32:45;;;;;;;3.28;2.97;;;;;;;;;;4921788;29;20051;-72
2023/03/21 03:35:16;;;;;;;4.65;3.38;;;;;;;;;;4928920;29;20647;-72
2023/03/21 03:37:45;;;;;;;5.57;3.30;;;;;;;;;;4932178;29;20051;-72
2023/03/21 03:40:29;;;;;;;4.60;3.30;;;;;;;;;;4921275;29;20043;-72
2023/03/21 03:43:19;;;;;;;4.13;3.60;;;;;;;;;;4889906;29;20044;-72
2023/03/21 03:45:55;;;;;;;3.80;3.40;;;;;;;;;;4911307;29;20139;-72
2023/03/21 03:48:21;;;;;;;3.70;3.30;;;;;;;;;;4926166;29;20048;-72
2023/03/21 03:50:49;;;;;;;3.83;3.20;;;;;;;;;;4917326;29;20046;-72
2023/03/21 03:53:25;;;;;;;3.25;2.90;;;;;;;;;;4911102;29;20121;-72
2023/03/21 03:55:55;;;;;;;7.40;3.20;;;;;;;;;;4911686;29;20573;-72
2023/03/21 03:58:22;;;;;;;3.47;3.17;;;;;;;;;;4917205;29;20055;-72
2023/03/21 04:00:48;;;;;;;5.90;3.55;;;;;;;;;;4930771;29;20040;-72
2023/03/21 04:03:14;;;;;;;4.43;3.47;;;;;;;;;;4925098;29;20056;-72
2023/03/21 04:05:40;;;;;;;7.82;3.67;;;;;;;;;;4925918;29;20062;-72
2023/03/21 04:08:07;;;;;;;4.88;3.28;;;;;;;;;;4935475;29;20048;-72
2023/03/21 04:10:42;;;;;;;7.03;3.65;;;;;;;;;;4918578;29;20134;-71
2023/03/21 04:13:09;;;;;;;5.07;3.78;;;;;;;;;;4927967;29;20047;-71
2023/03/21 04:16:03;;;;;;;3.80;3.40;;;;;;;;;;4925033;28;20047;-70
2023/03/21 04:18:29;;;;;;;4.32;3.92;;;;;;;;;;4919992;29;21134;-71
2023/03/21 04:20:56;;;;;;;4.68;3.30;;;;;;;;;;4919241;29;20090;-71
2023/03/21 04:23:22;;;;;;;3.90;3.50;;;;;;;;;;4919754;29;20098;-71
2023/03/21 04:25:49;;;;;;;3.50;3.20;;;;;;;;;;4921123;29;20047;-71
2023/03/21 04:28:15;;;;;;;4.60;3.40;;;;;;;;;;4935618;28;20048;-71
2023/03/21 04:30:56;;;;;;;8.40;3.63;;;;;;;;;;4935315;29;20074;-71
2023/03/21 04:33:24;;;;;;;6.53;3.67;;;;;;;;;;4919020;29;20652;-71
2023/03/21 04:35:57;;;;;;;5.65;3.35;;;;;;;;;;4924127;29;20567;-73
2023/03/21 04:38:29;;;;;;;4.82;3.70;;;;;;;;;;4924907;29;20055;-72
2023/03/21 04:40:56;;;;;;;4.25;3.40;;;;;;;;;;4931180;29;20054;-71
2023/03/21 04:43:22;;;;;;;4.55;3.65;;;;;;;;;;4930777;29;20406;-71
2023/03/21 04:45:49;;;;;;;4.50;3.70;;;;;;;;;;4912844;29;20906;-72
2023/03/21 04:48:16;;;;;;;6.95;4.00;;;;;;;;;;4919926;29;20078;-71
2023/03/21 04:50:44;;;;;;;5.85;3.50;;;;;;;;;;4924109;29;20118;-73
2023/03/21 04:53:09;;;;;;;6.30;3.65;;;;;;;;;;4924586;29;20518;-73
2023/03/21 04:55:35;;;;;;;4.03;3.60;;;;;;;;;;4933403;29;20078;-73
2023/03/21 04:58:03;;;;;;;4.25;3.40;;;;;;;;;;4935481;28;20077;-74
2023/03/21 05:00:36;;;;;;;3.78;3.47;;;;;;;;;;4917301;29;20044;-70
2023/03/21 05:03:03;;;;;;;6.18;3.83;;;;;;;;;;4906953;29;20047;-71
2023/03/21 05:05:30;;;;;;;5.32;3.72;;;;;;;;;;4931022;29;20124;-72
2023/03/21 05:07:57;;;;;;;4.25;3.63;;;;;;;;;;4930382;29;20383;-72
2023/03/21 05:10:22;;;;;;;5.90;3.50;;;;;;;;;;4913879;29;20455;-72
2023/03/21 05:12:48;;;;;;;4.70;3.60;;;;;;;;;;4927526;29;20072;-71
2023/03/21 05:15:13;;;;;;;6.90;3.67;;;;;;;;;;4912184;29;20056;-72
2023/03/21 05:17:41;;;;;;;9.30;4.05;;;;;;;;;;4913857;29;20848;-72
2023/03/21 05:20:10;;;;;;;4.57;3.70;;;;;;;;;;4913592;29;20035;-72
2023/03/21 05:22:39;;;;;;;5.90;4.40;;;;;;;;;;4911460;29;20056;-72
2023/03/21 05:25:08;;;;;;;4.00;3.60;;;;;;;;;;4909190;29;20059;-72
2023/03/21 05:27:56;;;;;;;4.20;3.42;;;;;;;;;;4919236;29;20098;-72
2023/03/21 05:30:25;;;;;;;6.28;3.95;;;;;;;;;;4914876;29;20188;-72
2023/03/21 05:32:56;;;;;;;6.03;4.43;;;;;;;;;;4917359;29;20059;-72
2023/03/21 05:35:22;;;;;;;6.63;4.50;;;;;;;;;;4912558;29;20051;-71
2023/03/21 05:37:48;;;;;;;6.22;4.53;;;;;;;;;;4913315;29;20048;-71
2023/03/21 05:40:14;;;;;;;6.57;4.20;;;;;;;;;;4908732;29;20052;-72
2023/03/21 05:42:42;;;;;;;9.15;4.75;;;;;;;;;;4924999;29;20047;-72
2023/03/21 05:45:16;;;;;;;6.32;4.47;;;;;;;;;;4911347;29;20384;-72
2023/03/21 05:47:42;;;;;;;7.68;4.50;;;;;;;;;;4922733;29;20835;-72
2023/03/21 05:50:10;;;;;;;6.43;4.28;;;;;;;;;;4922840;29;20059;-72
2023/03/21 05:52:36;;;;;;;5.80;5.15;;;;;;;;;;4927432;29;20055;-72
2023/03/21 05:55:09;;;;;;;5.68;4.70;;;;;;;;;;4913794;29;20107;-73
2023/03/21 05:57:38;;;;;;;7.70;4.50;;;;;;;;;;4911059;29;20054;-72
2023/03/21 06:00:07;;;;;;;5.72;4.47;;;;;;;;;;4915648;29;20051;-71
2023/03/21 06:02:42;;;;;;;7.57;4.43;;;;;;;;;;4928098;29;20058;-71
2023/03/21 06:05:24;;;;;;;5.03;4.40;;;;;;;;;;4919864;29;20043;-73
2023/03/21 06:07:50;;;;;;;8.43;5.75;;;;;;;;;;4922052;29;20047;-71
2023/03/21 06:10:16;;;;;;;5.53;4.95;;;;;;;;;;4907271;29;20047;-70
2023/03/21 06:12:44;;;;;;;6.13;4.68;;;;;;;;;;4919304;29;20047;-72
2023/03/21 06:15:29;;;;;;;6.53;4.13;;;;;;;;;;4918278;29;20054;-74
2023/03/21 06:18:02;;;;;;;8.88;4.18;;;;;;;;;;4920656;29;20083;-72
2023/03/21 06:20:28;;;;;;;4.95;4.20;;;;;;;;;;4908567;29;20131;-71
2023/03/21 06:23:00;;;;;;;4.70;3.95;;;;;;;;;;4905914;29;20139;-74
2023/03/21 06:25:27;;;;;;;7.22;4.30;;;;;;;;;;4920055;29;20055;-72
2023/03/21 06:27:53;;;;;;;5.03;4.00;;;;;;;;;;4905049;29;20098;-72
2023/03/21 06:30:19;;;;;;;3.88;3.55;;;;;;;;;;4921623;29;20046;-71
2023/03/21 06:32:59;;;;;;;5.35;4.07;;;;;;;;;;4922401;29;20056;-73
2023/03/21 06:35:24;;;;;;;5.95;4.03;;;;;;;;;;4927897;29;20039;-71
2023/03/21 06:37:50;;;;;;;5.32;3.90;;;;;;;;;;4909496;29;20043;-72
2023/03/21 06:40:18;;;;;;;4.68;3.80;;;;;;;;;;4922059;29;20051;-71
2023/03/21 06:42:44;;;;;;;7.97;4.38;;;;;;;;;;4921224;29;20054;-71
2023/03/21 06:45:10;;;;;;;4.15;3.65;;;;;;;;;;4905704;29;20587;-74
2023/03/21 06:47:36;;;;;;;7.15;3.95;;;;;;;;;;4921928;29;20134;-72
2023/03/21 06:50:05;;;;;;;7.65;4.03;;;;;;;;;;4920503;29;20054;-71
2023/03/21 06:52:36;;;;;;;;;;;;;;;;;;4913092;29;20142;-73
2023/03/21 06:55:03;;;;;;;4.97;3.58;;;;;;;;;;4919886;29;20065;-71
2023/03/21 06:57:29;;;;;;;4.20;3.80;;;;;;;;;;4919826;29;20052;-73
2023/03/21 06:59:55;;;;;;;3.80;3.35;;;;;;;;;;4918886;29;20051;-71
2023/03/21 07:02:22;;;;;;;4.60;3.60;;;;;;;;;;4919643;29;20102;-72
2023/03/21 07:05:15;;;;;;;5.20;3.75;;;;;;;;;;4917148;29;20415;-71
2023/03/21 07:07:41;;;;;;;5.57;3.42;;;;;;;;;;4920835;29;20047;-71
2023/03/21 07:10:09;;;;;;;5.03;3.60;;;;;;;;;;4920660;29;20058;-73
2023/03/21 07:12:44;;;;;;;3.30;2.90;;;;;;;;;;4921033;29;20050;-72
2023/03/21 07:15:20;;;;;;;4.13;3.50;;;;;;;;;;4921230;29;20202;-73
2023/03/21 07:17:45;;;;;;;4.25;3.65;;;;;;;;;;4905649;29;20518;-71
2023/03/21 07:20:11;;;;;;;3.78;3.13;;;;;;;;;;4921512;29;20058;-71
2023/03/21 07:22:37;;;;;;;4.15;3.70;;;;;;;;;;4904946;29;20107;-72
2023/03/21 07:25:04;;;;;;;6.57;3.53;;;;;;;;;;4899839;29;20503;-73
2023/03/21 07:27:29;;;;;;;4.45;3.85;;;;;;;;;;4904497;29;20114;-71
2023/03/21 07:29:55;;;;;;;6.20;4.10;;;;;;;;;;4912465;29;20051;-70
2023/03/21 07:32:21;;;;;;;3.67;3.38;;;;;;;;;;4925228;29;20380;-69
2023/03/21 07:34:48;;;;;;;6.35;3.42;;;;;;;;;;4914132;29;20501;-68
2023/03/21 07:37:15;;;;;;;7.25;3.15;;;;;;;;;;4907987;29;20166;-69
2023/03/21 07:39:41;;;;;;;5.22;3.17;;;;;;;;;;4926277;29;20137;-70
2023/03/21 07:42:07;;;;;;;4.10;2.80;;;;;;;;;;4924767;29;20507;-69
2023/03/21 07:44:37;;;;;;;5.78;3.22;;;;;;;;;;4922988;29;20138;-69
2023/03/21 07:47:05;;;;;;;8.55;2.80;;;;;;;;;;4927975;29;20150;-69
2023/03/21 07:49:32;;;;;;;6.15;3.28;;;;;;;;;;4908726;29;20821;-69
2023/03/21 07:51:58;;;;;;;6.78;2.85;;;;;;;;;;4908479;29;20048;-69
2023/03/21 07:54:24;;;;;;;5.60;2.90;;;;;;;;;;4926004;29;20063;-70
2023/03/21 07:56:49;;;;;;;6.18;2.80;;;;;;;;;;4925170;29;20047;-69
2023/03/21 07:59:15;;;;;;;7.65;3.08;;;;;;;;;;4925978;29;20556;-70
2023/03/21 08:01:40;;;;;;;4.10;3.10;;;;;;;;;;4925639;29;20050;-70
2023/03/21 08:04:07;;;;;;;3.40;2.75;;;;;;;;;;4925561;29;20495;-68
2023/03/21 08:06:32;;;;;;;11.25;3.00;;;;;;;;;;4929421;29;20043;-70
2023/03/21 08:08:58;;;;;;;3.13;2.80;;;;;;;;;;4925695;29;21062;-70
2023/03/21 08:11:24;;;;;;;6.35;3.13;;;;;;;;;;4925377;29;20047;-70
2023/03/21 08:13:50;;;;;;;3.63;2.97;;;;;;;;;;4925581;29;20414;-70
2023/03/21 08:16:16;;;;;;;4.90;2.88;;;;;;;;;;4925285;29;20063;-71
2023/03/21 08:18:41;;;;;;;3.28;2.97;;;;;;;;;;4932205;29;20136;-69
2023/03/21 08:21:07;;;;;;;6.00;3.35;;;;;;;;;;4925000;29;20043;-69
2023/03/21 08:23:33;;;;;;;3.72;3.33;;;;;;;;;;4925223;29;20052;-69
2023/03/21 08:25:58;;;;;;;4.55;3.70;;;;;;;;;;4926947;29;20064;-68
2023/03/21 08:28:24;;;;;;;3.55;3.15;;;;;;;;;;4924483;29;20051;-70
2023/03/21 08:30:49;;;;;;;3.45;3.00;;;;;;;;;;4930567;29;20513;-71
2023/03/21 08:33:17;;;;;;;3.40;3.00;;;;;;;;;;4925086;29;20048;-69
2023/03/21 08:35:43;;;;;;;4.75;3.10;;;;;;;;;;4924971;29;20085;-70
2023/03/21 08:38:09;;;;;;;4.13;3.00;;;;;;;;;;4924715;29;20067;-70
2023/03/21 08:40:35;;;;;;;3.40;2.60;;;;;;;;;;4923917;29;20051;-70
2023/03/21 08:43:01;;;;;;;7.07;3.20;;;;;;;;;;4924823;29;20263;-69
2023/03/21 08:45:26;;;;;;;3.22;2.80;;;;;;;;;;4925066;29;20398;-70
2023/03/21 08:47:52;;;;;;;2.75;2.55;;;;;;;;;;4927134;29;20048;-69
2023/03/21 08:50:21;;;;;;;4.88;2.95;;;;;;;;;;4924346;29;20065;-69
2023/03/21 08:52:48;;;;;;;4.35;3.08;;;;;;;;;;4923120;29;20047;-70
2023/03/21 08:55:15;;;;;;;3.10;2.80;;;;;;;;;;4924694;29;20055;-70
2023/03/21 08:57:41;;;;;;;4.15;2.58;;;;;;;;;;4924858;29;20055;-70
2023/03/21 09:00:13;;;;;;;8.07;3.47;;;;;;;;;;4932789;29;20050;-70
2023/03/21 09:02:40;;;;;;;6.20;2.97;;;;;;;;;;4931665;29;20085;-70
2023/03/21 09:05:06;;;;;;;7.18;3.10;;;;;;;;;;4930746;29;20056;-69
2023/03/21 09:07:35;;;;;;;3.90;2.90;;;;;;;;;;4931723;29;20055;-69
2023/03/21 09:10:01;;;;;;;7.40;2.72;;;;;;;;;;4932403;29;20059;-71
2023/03/21 09:12:27;;;;;;;5.05;2.90;;;;;;;;;;4932148;29;20478;-70
2023/03/21 09:14:52;;;;;;;3.78;2.80;;;;;;;;;;4923567;29;20801;-69
2023/03/21 09:17:18;;;;;;;5.20;2.90;;;;;;;;;;4924506;29;20155;-68
2023/03/21 09:19:46;;;;;;;3.25;2.72;;;;;;;;;;4924324;29;21106;-70
2023/03/21 09:22:16;;;;;;;3.38;3.08;;;;;;;;;;4923996;29;20079;-71
2023/03/21 09:24:46;;;;;;;3.40;2.83;;;;;;;;;;4923403;29;20062;-69
2023/03/21 09:27:24;;;;;;;4.95;2.97;;;;;;;;;;4928751;29;20442;-72
2023/03/21 09:29:49;;;;;;;3.92;2.90;;;;;;;;;;4925761;29;20052;-71
2023/03/21 09:32:17;;;;;;;3.42;3.03;;;;;;;;;;4929821;29;20058;-70
2023/03/21 09:34:43;;;;;;;4.88;2.97;;;;;;;;;;4923857;29;20051;-70
2023/03/21 09:37:11;;;;;;;4.28;2.70;;;;;;;;;;4924731;29;20066;-70
2023/03/21 09:39:41;;;;;;;4.65;2.95;;;;;;;;;;4909206;29;20517;-72
2023/03/21 09:42:25;;;;;;;6.00;2.65;;;;;;;;;;4924063;29;20059;-70
2023/03/21 09:45:07;;;;;;;3.67;2.88;;;;;;;;;;4930049;28;20054;-71
2023/03/21 09:47:44;;;;;;;;;;;;;;;;;;4923691;29;20047;-70
2023/03/21 09:50:26;;;;;;;4.68;2.85;;;;;;;;;;4924012;29;19927;-71
2023/03/21 09:52:57;;;;;;;;;;;;;;;;;;4923053;29;20566;-69
2023/03/21 09:55:29;;;;;;;4.82;3.00;;;;;;;;;;4928857;29;20013;-71
2023/03/21 09:58:19;;;;;;;2.80;2.60;;;;;;;;;;4923413;29;20079;-70
2023/03/21 10:00:52;;;;;;;3.10;2.80;;;;;;;;;;4921617;29;20051;-71
2023/03/21 10:03:23;;;;;;;6.80;3.13;;;;;;;;;;4923693;29;20568;-71
2023/03/21 10:05:51;;;;;;;4.23;3.07;;;;;;;;;;4923519;29;20047;-71
2023/03/21 10:08:35;;;;;;;4.68;2.80;;;;;;;;;;4930723;28;20047;-71
2023/03/21 10:11:09;;;;;;;4.70;2.88;;;;;;;;;;4923541;29;20059;-70
2023/03/21 10:13:41;;;;;;;4.05;2.83;;;;;;;;;;4922184;29;20066;-71
2023/03/21 10:16:15;;;;;;;3.30;3.00;;;;;;;;;;4923343;29;20047;-70
2023/03/21 10:18:42;;;;;;;5.78;2.80;;;;;;;;;;4923440;29;20083;-71
2023/03/21 10:21:15;;;;;;;4.55;3.15;;;;;;;;;;4923112;29;20052;-70
2023/03/21 10:23:41;;;;;;;6.50;2.88;;;;;;;;;;4923356;29;20452;-69
2023/03/21 10:26:06;;;;;;;3.10;2.55;;;;;;;;;;4923044;29;20103;-69
2023/03/21 10:28:36;;;;;;;3.60;2.95;;;;;;;;;;4921772;29;20110;-72
2023/03/21 10:31:05;;;;;;;5.10;2.97;;;;;;;;;;4922769;29;20578;-70
2023/03/21 10:33:37;;;;;;;4.82;2.72;;;;;;;;;;4922150;29;20058;-70
2023/03/21 10:36:07;;;;;;;2.83;2.30;;;;;;;;;;4923186;29;20097;-69
2023/03/21 10:38:34;;;;;;;4.57;2.90;;;;;;;;;;4926979;29;20046;-69
2023/03/21 10:41:00;;;;;;;3.50;2.60;;;;;;;;;;4924724;29;20056;-70
2023/03/21 10:43:34;;;;;;;3.55;2.83;;;;;;;;;;4926532;29;20114;-70
2023/03/21 10:46:16;;;;;;;3.08;2.80;;;;;;;;;;4930570;29;20414;-72
2023/03/21 10:48:46;;;;;;;6.05;2.65;;;;;;;;;;4923311;29;20079;-71
2023/03/21 10:51:18;;;;;;;3.28;2.80;;;;;;;;;;4922035;29;20053;-70
2023/03/21 10:54:05;;;;;;;4.30;3.03;;;;;;;;;;4923060;29;20735;-71
2023/03/21 10:56:35;;;;;;;3.30;2.97;;;;;;;;;;4928625;29;20058;-71
2023/03/21 10:59:01;;;;;;;3.15;2.85;;;;;;;;;;4922892;29;20142;-71
2023/03/21 11:01:35;;;;;;;2.90;2.70;;;;;;;;;;4921452;29;20502;-70
2023/03/21 11:04:09;;;;;;;2.88;2.67;;;;;;;;;;4923411;29;20581;-72
2023/03/21 11:06:39;;;;;;;3.42;2.83;;;;;;;;;;4929223;29;20107;-72
2023/03/21 11:09:14;;;;;;;4.78;3.25;;;;;;;;;;4926771;29;20487;-71
2023/03/21 11:11:48;;;;;;;5.93;2.78;;;;;;;;;;4926884;29;20052;-70
2023/03/21 11:14:35;;;;;;;4.85;3.00;;;;;;;;;;4925753;29;20430;-71
2023/03/21 11:17:00;;;;;;;3.28;2.97;;;;;;;;;;4925270;29;20059;-70
2023/03/21 11:19:32;;;;;;;2.90;2.58;;;;;;;;;;4929767;29;20051;-72
2023/03/21 11:22:03;;;;;;;3.67;3.00;;;;;;;;;;4933492;29;20062;-72
2023/03/21 11:24:29;;;;;;;3.10;2.90;;;;;;;;;;4925669;29;20059;-70
2023/03/21 11:26:56;;;;;;;3.00;2.80;;;;;;;;;;4923292;29;21096;-71
2023/03/21 11:29:44;;;;;;;3.25;2.53;;;;;;;;;;4926628;29;20047;-72
2023/03/21 11:32:25;;;;;;;2.75;2.55;;;;;;;;;;4932768;29;20147;-72
2023/03/21 11:34:53;;;;;;;4.23;2.20;;;;;;;;;;4932167;28;20119;-71
2023/03/21 11:37:19;;;;;;;4.07;2.60;;;;;;;;;;4926239;29;20066;-71
2023/03/21 11:39:45;;;;;;;2.75;2.38;;;;;;;;;;4926176;29;20434;-71
2023/03/21 11:42:31;;;;;;;4.00;3.08;;;;;;;;;;4926387;29;20048;-72
2023/03/21 11:45:01;;;;;;;4.97;2.60;;;;;;;;;;4892486;29;20094;-71
2023/03/21 11:47:27;;;;;;;2.50;2.30;;;;;;;;;;4925677;29;20040;-70
2023/03/21 11:49:52;;;;;;;2.58;2.38;;;;;;;;;;4925889;29;20063;-72
2023/03/21 11:52:30;;;;;;;3.75;2.75;;;;;;;;;;4926224;29;20051;-69
2023/03/21 11:55:01;;;;;;;2.80;2.53;;;;;;;;;;4925235;29;20110;-70
2023/03/21 11:57:51;;;;;;;4.73;3.10;;;;;;;;;;4928261;29;21017;-71
2023/03/21 12:00:21;;;;;;;3.60;2.90;;;;;;;;;;4935006;29;20086;-72
2023/03/21 12:03:16;;;;;;;2.63;2.42;;;;;;;;;;4925414;29;20142;-71
2023/03/21 12:06:02;;;;;;;6.28;2.70;;;;;;;;;;4925361;29;20515;-71
2023/03/21 12:08:34;;;;;;;4.30;2.85;;;;;;;;;;4929014;29;20459;-71
2023/03/21 12:11:18;;;;;;;3.00;2.80;;;;;;;;;;4924562;29;20054;-72
2023/03/21 12:14:10;;;;;;;4.75;3.05;;;;;;;;;;4925750;29;20787;-70
2023/03/21 12:17:00;;;;;;;3.80;3.08;;;;;;;;;;4927323;29;20051;-70
2023/03/21 12:19:54;;;;;;;3.60;2.80;;;;;;;;;;4928093;29;20424;-70
2023/03/21 12:22:37;;;;;;;4.95;3.28;;;;;;;;;;4927635;29;20050;-70
2023/03/21 12:25:17;;;;;;;3.60;3.30;;;;;;;;;;4924623;29;20534;-69
2023/03/21 12:28:11;;;;;;;4.03;3.10;;;;;;;;;;4924699;29;20048;-71
2023/03/21 12:31:06;;;;;;;3.25;2.80;;;;;;;;;;4925829;29;20044;-71
2023/03/21 12:33:57;;;;;;;5.10;2.67;;;;;;;;;;4913837;29;20107;-69
2023/03/21 12:36:50;;;;;;;4.37;2.60;;;;;;;;;;4910099;29;20102;-69
2023/03/21 12:39:34;;;;;;;7.75;2.78;;;;;;;;;;4908070;29;20054;-70
2023/03/21 12:42:27;;;;;;;3.17;2.85;;;;;;;;;;4933002;29;20082;-70
2023/03/21 12:45:01;;;;;;;3.38;3.08;;;;;;;;;;4932735;29;20044;-70
2023/03/21 12:47:30;;;;;;;4.95;3.15;;;;;;;;;;4930946;29;20082;-70
2023/03/21 12:50:01;;;;;;;6.70;2.70;;;;;;;;;;4934203;29;20043;-73
2023/03/21 12:52:31;;;;;;;2.80;2.33;;;;;;;;;;4924244;29;20052;-69
2023/03/21 12:55:26;;;;;;;3.22;2.60;;;;;;;;;;4925195;29;20067;-69
2023/03/21 12:58:03;;;;;;;2.50;2.30;;;;;;;;;;4925842;29;20151;-70
2023/03/21 13:00:43;;;;;;;2.58;2.30;;;;;;;;;;4908855;29;20537;-72
2023/03/21 13:03:23;;;;;;;3.88;2.20;;;;;;;;;;4909363;29;20055;-69
2023/03/21 13:06:00;;;;;;;2.75;2.38;;;;;;;;;;4932059;29;20069;-71
2023/03/21 13:08:45;;;;;;;2.75;2.35;;;;;;;;;;4926098;29;20051;-69
2023/03/21 13:11:14;;;;;;;3.55;2.30;;;;;;;;;;4905957;29;20143;-70
2023/03/21 13:13:45;;;;;;;6.03;2.45;;;;;;;;;;4925281;29;20062;-71
2023/03/21 13:16:23;;;;;;;2.78;2.33;;;;;;;;;;4924804;29;20055;-70
2023/03/21 13:19:02;;;;;;;4.13;2.40;;;;;;;;;;4924839;29;20071;-70
2023/03/21 13:21:50;;;;;;;2.30;2.17;;;;;;;;;;4927156;29;20434;-70
2023/03/21 13:24:18;;;;;;;2.72;2.53;;;;;;;;;;4924734;29;20110;-70
2023/03/21 13:26:50;;;;;;;4.45;2.05;;;;;;;;;;4924725;29;20044;-72
2023/03/21 13:29:27;;;;;;;2.70;2.50;;;;;;;;;;4927201;29;20047;-70
2023/03/21 13:31:55;;;;;;;3.72;2.22;;;;;;;;;;4931333;29;20066;-70
2023/03/21 13:34:22;;;;;;;2.72;2.20;;;;;;;;;;4926563;29;20051;-68
2023/03/21 13:36:50;;;;;;;5.47;2.30;;;;;;;;;;4912733;28;20087;-69
2023/03/21 13:39:25;;;;;;;2.47;2.20;;;;;;;;;;4930803;29;20486;-70
2023/03/21 13:41:52;;;;;;;3.28;2.30;;;;;;;;;;4928565;29;20043;-69
2023/03/21 13:44:21;;;;;;;2.40;2.20;;;;;;;;;;4911253;29;20051;-69
2023/03/21 13:46:58;;;;;;;2.58;2.38;;;;;;;;;;4905927;29;20099;-70
2023/03/21 13:49:31;;;;;;;2.17;1.30;;;;;;;;;;4924247;29;20065;-72
2023/03/21 13:51:59;;;;;;;1.75;1.40;;;;;;;;;;4933842;29;20700;-71
2023/03/21 13:54:42;;;;;;;1.60;1.50;;;;;;;;;;4930527;29;20054;-71
2023/03/21 13:57:20;;;;;;;2.97;1.55;;;;;;;;;;4907092;29;20051;-69
2023/03/21 13:59:47;;;;;;;1.08;1.05;;;;;;;;;;4927833;29;20499;-71
2023/03/21 14:02:34;;;;;;;2.90;1.40;;;;;;;;;;4923621;29;20859;-71
2023/03/21 14:05:15;;;;;;;1.95;1.40;;;;;;;;;;4926551;29;20051;-71
2023/03/21 14:07:44;;;;;;;4.40;1.70;;;;;;;;;;4922199;29;20255;-71
2023/03/21 14:10:24;;;;;;;4.90;1.58;;;;;;;;;;4925053;29;20173;-72
2023/03/21 14:12:51;;;;;;;2.60;1.20;;;;;;;;;;4923025;29;20063;-70
2023/03/21 14:15:21;;;;;;;1.30;1.20;;;;;;;;;;4923404;29;20061;-70
2023/03/21 14:17:56;;;;;;;1.55;1.30;;;;;;;;;;4923602;29;20059;-70
2023/03/21 14:20:26;;;;;;;1.50;1.00;;;;;;;;;;4925269;29;20059;-70
2023/03/21 14:22:51;;;;;;;1.42;1.13;;;;;;;;;;4922765;29;20051;-70
2023/03/21 14:25:20;;;;;;;1.40;1.00;;;;;;;;;;4923132;29;20055;-70
2023/03/21 14:27:58;;;;;;;1.90;1.10;;;;;;;;;;4923049;29;20063;-70
2023/03/21 14:30:31;;;;;;;0.82;0.82;;;;;;;;;;4923441;29;20114;-70
2023/03/21 14:33:00;;;;;;;1.00;0.90;;;;;;;;;;4922796;29;20055;-73
2023/03/21 14:35:30;;;;;;;4.72;1.02;;;;;;;;;;4922941;29;20056;-68
2023/03/21 14:38:00;;;;;;;0.95;0.80;;;;;;;;;;4923220;29;20503;-71
2023/03/21 14:40:27;;;;;;;3.53;1.00;;;;;;;;;;4923010;29;20376;-72
2023/03/21 14:42:53;;;;;;;4.85;1.10;;;;;;;;;;4922395;29;20445;-71
2023/03/21 14:45:28;;;;;;;4.72;1.10;;;;;;;;;;4923096;29;20066;-70
2023/03/21 14:48:05;;;;;;;2.58;1.00;;;;;;;;;;4922962;29;20483;-70
2023/03/21 14:50:45;;;;;;;3.10;0.98;;;;;;;;;;4922887;29;20114;-70
2023/03/21 14:53:17;;;;;;;4.30;1.20;;;;;;;;;;4919673;29;20059;-70
2023/03/21 14:55:54;;;;;;;2.20;2.03;;;;;;;;;;4923657;29;20055;-70
2023/03/21 14:58:20;;;;;;;3.33;2.30;;;;;;;;;;4922729;29;20060;-70
2023/03/21 15:00:49;;;;;;;5.38;2.33;;;;;;;;;;4922496;29;20043;-71
2023/03/21 15:03:17;;;;;;;6.45;2.22;;;;;;;;;;4922700;29;20608;-70
2023/03/21 15:05:44;;;;;;;11.75;2.42;;;;;;;;;;4922157;29;20051;-71
2023/03/21 15:08:19;;;;;;;4.72;2.03;;;;;;;;;;4905729;29;20106;-71
2023/03/21 15:11:05;;;;;;;4.05;2.38;;;;;;;;;;4922358;29;20055;-70